Time;durP1;ratioP1;P1;durP2;ratioP2;P2;SDS_P1;SDS_P2;PMS_P1;PMS_P2;Temp;Humidity;BMP_temperature;BMP_pressure;BME280_temperature;BME280_humidity;BME280_pressure;Samples;Min_cycle;Max_cycle;Signal;HPM_P1;HPM_P2
2022/10/16 00:01:24;;;;;;;;;;;16.50;99.90;;;;;;5039778;28;20455;-79
2022/10/16 00:03:51;;;;;;;;;;;16.40;99.90;;;;;;5042747;28;20019;-79
2022/10/16 00:06:19;;;;;;;;;;;16.40;99.90;;;;;;5035416;28;19988;-79
2022/10/16 00:08:47;;;;;;;;;;;16.50;99.90;;;;;;5044443;28;19983;-79
2022/10/16 00:11:15;;;;;;;;;;;16.40;99.90;;;;;;5039765;28;19995;-79
2022/10/16 00:13:43;;;;;;;;;;;16.50;99.90;;;;;;5036512;28;20486;-79
2022/10/16 00:16:21;;;;;;;;;;;16.50;99.90;;;;;;5044301;28;20002;-79
2022/10/16 00:18:47;;;;;;;;;;;16.40;99.90;;;;;;5042272;28;20006;-79
2022/10/16 00:21:16;;;;;;;;;;;16.40;99.90;;;;;;5044616;28;20380;-79
2022/10/16 00:23:42;;;;;;;;;;;16.40;99.90;;;;;;5039878;28;19975;-79
2022/10/16 00:26:11;;;;;;;;;;;16.40;99.90;;;;;;5039236;28;20118;-79
2022/10/16 00:28:38;;;;;;;;;;;16.40;99.90;;;;;;5039462;28;20072;-79
2022/10/16 00:31:05;;;;;;;;;;;16.40;99.90;;;;;;5040133;28;20096;-79
2022/10/16 00:33:32;;;;;;;;;;;16.40;99.90;;;;;;5043419;28;19978;-79
2022/10/16 00:35:59;;;;;;;;;;;16.40;99.90;;;;;;5046894;28;20110;-79
2022/10/16 00:38:26;;;;;;;;;;;16.40;99.90;;;;;;5042415;28;19980;-79
2022/10/16 00:40:52;;;;;;;;;;;16.50;99.90;;;;;;5042974;28;19998;-79
2022/10/16 00:43:35;;;;;;;;;;;16.50;99.90;;;;;;5041358;28;20078;-79
2022/10/16 00:46:02;;;;;;;;;;;16.50;99.90;;;;;;5041798;28;20712;-79
2022/10/16 00:48:29;;;;;;;;;;;16.50;99.90;;;;;;5042888;28;19987;-79
2022/10/16 00:50:56;;;;;;;;;;;16.40;99.90;;;;;;5037483;28;19992;-79
2022/10/16 00:53:24;;;;;;;;;;;16.40;99.90;;;;;;5038206;28;20501;-79
2022/10/16 00:55:50;;;;;;;;;;;16.40;99.90;;;;;;5039716;28;19987;-79
2022/10/16 00:58:17;;;;;;;;;;;16.50;99.90;;;;;;5040842;28;20012;-79
2022/10/16 01:00:46;;;;;;;;;;;16.40;99.90;;;;;;5053882;28;20205;-79
2022/10/16 01:03:23;;;;;;;;;;;16.40;99.90;;;;;;5044063;28;20003;-79
2022/10/16 01:05:54;;;;;;;;;;;16.40;99.90;;;;;;5044109;28;19929;-80
2022/10/16 01:08:24;;;;;;;;;;;16.40;99.90;;;;;;5040008;28;19936;-79
2022/10/16 01:10:56;;;;;;;;;;;16.40;99.90;;;;;;5043246;28;19929;-79
2022/10/16 01:13:25;;;;;;;;;;;16.40;99.90;;;;;;5045142;28;19933;-79
2022/10/16 01:15:57;;;;;;;;;;;16.40;99.90;;;;;;5042552;28;20389;-79
2022/10/16 01:18:28;;;;;;;;;;;16.40;99.90;;;;;;5039281;28;20014;-79
2022/10/16 01:20:57;;;;;;;;;;;16.40;99.90;;;;;;5042964;28;20397;-79
2022/10/16 01:23:28;;;;;;;;;;;16.40;99.90;;;;;;5042197;28;19929;-79
2022/10/16 01:26:10;;;;;;;;;;;16.40;99.90;;;;;;5043342;28;19929;-78
2022/10/16 01:28:40;;;;;;;;;;;16.40;99.90;;;;;;5043424;28;20439;-79
2022/10/16 01:31:07;;;;;;;;;;;16.40;99.90;;;;;;5043080;28;19939;-79
2022/10/16 01:33:37;;;;;;;;;;;16.40;99.90;;;;;;5042037;28;19936;-79
2022/10/16 01:36:06;;;;;;;;;;;16.40;99.90;;;;;;5043736;28;19933;-79
2022/10/16 01:38:35;;;;;;;;;;;16.40;99.90;;;;;;5042420;28;19940;-79
2022/10/16 01:41:07;;;;;;;;;;;16.40;99.90;;;;;;5042195;28;19929;-79
2022/10/16 01:43:36;;;;;;;;;;;16.40;99.90;;;;;;5043355;28;20597;-79
2022/10/16 01:46:05;;;;;;;;;;;16.30;99.90;;;;;;5043913;28;19932;-79
2022/10/16 01:48:33;;;;;;;;;;;16.40;99.90;;;;;;5040989;28;19929;-78
2022/10/16 01:51:03;;;;;;;;;;;16.30;99.90;;;;;;5042834;28;19933;-79
2022/10/16 01:53:30;;;;;;;;;;;16.30;99.90;;;;;;5041628;28;20300;-79
2022/10/16 01:55:58;;;;;;;;;;;16.30;99.90;;;;;;5038188;28;19941;-79
2022/10/16 01:58:26;;;;;;;;;;;16.30;99.90;;;;;;5041691;28;20601;-78
2022/10/16 02:00:54;;;;;;;;;;;16.30;99.90;;;;;;5035704;28;20035;-81
2022/10/16 02:03:22;;;;;;;;;;;16.30;99.90;;;;;;5041130;28;20593;-80
2022/10/16 02:05:51;;;;;;;;;;;16.30;99.90;;;;;;5036496;28;19936;-79
2022/10/16 02:08:18;;;;;;;;;;;16.40;99.90;;;;;;5042179;28;19936;-79
2022/10/16 02:10:44;;;;;;;;;;;16.30;99.90;;;;;;5041965;28;20408;-79
2022/10/16 02:13:12;;;;;;;;;;;16.30;99.90;;;;;;5038454;28;19975;-78
2022/10/16 02:15:41;;;;;;;;;;;16.30;99.90;;;;;;5040271;28;19990;-78
2022/10/16 02:18:09;;;;;;;;;;;16.30;99.90;;;;;;5043887;28;19929;-78
2022/10/16 02:20:41;;;;;;;;;;;16.30;99.90;;;;;;5043239;28;19951;-79
2022/10/16 02:23:10;;;;;;;;;;;16.30;99.90;;;;;;5041767;28;19935;-79
2022/10/16 02:25:39;;;;;;;;;;;16.30;99.90;;;;;;5042324;28;19940;-78
2022/10/16 02:28:09;;;;;;;;;;;16.30;99.90;;;;;;5040561;28;20028;-79
2022/10/16 02:30:41;;;;;;;;;;;16.30;99.90;;;;;;5042374;28;20567;-79
2022/10/16 02:33:09;;;;;;;;;;;16.30;99.90;;;;;;5039939;28;20385;-79
2022/10/16 02:35:36;;;;;;;;;;;16.30;99.90;;;;;;5038539;28;20004;-79
2022/10/16 02:38:05;;;;;;;;;;;16.30;99.90;;;;;;5044096;28;19925;-79
2022/10/16 02:40:32;;;;;;;;;;;16.30;99.90;;;;;;5040451;28;19929;-79
2022/10/16 02:42:58;;;;;;;;;;;16.30;99.90;;;;;;5039055;28;19939;-79
2022/10/16 02:45:25;;;;;;;;;;;16.30;99.90;;;;;;5042661;28;19935;-79
2022/10/16 02:47:52;;;;;;;;;;;16.30;99.90;;;;;;5042053;28;19928;-79
2022/10/16 02:50:18;;;;;;;;;;;16.30;99.90;;;;;;5041665;28;19929;-79
2022/10/16 02:52:45;;;;;;;;;;;16.20;99.90;;;;;;5041189;28;19929;-79
2022/10/16 02:55:13;;;;;;;;;;;16.20;99.90;;;;;;5033264;28;19928;-79
2022/10/16 02:57:40;;;;;;;;;;;16.30;99.90;;;;;;5043144;28;19960;-78
2022/10/16 03:00:07;;;;;;;;;;;16.20;99.90;;;;;;5038181;28;20494;-79
2022/10/16 03:02:33;;;;;;;;;;;16.20;99.90;;;;;;5041706;28;19929;-79
2022/10/16 03:05:00;;;;;;;;;;;16.20;99.90;;;;;;5044684;28;19936;-78
2022/10/16 03:07:26;;;;;;;;;;;16.20;99.90;;;;;;5040529;28;19939;-79
2022/10/16 03:09:54;;;;;;;;;;;16.20;99.90;;;;;;5042835;28;19940;-79
2022/10/16 03:12:22;;;;;;;;;;;16.20;99.90;;;;;;5043271;28;19933;-80
2022/10/16 03:14:48;;;;;;;;;;;16.20;99.90;;;;;;5046907;28;19936;-79
2022/10/16 03:17:16;;;;;;;;;;;16.20;99.90;;;;;;5045126;28;19940;-79
2022/10/16 03:19:43;;;;;;;;;;;16.20;99.90;;;;;;5046911;28;19937;-79
2022/10/16 03:22:09;;;;;;;;;;;16.10;99.90;;;;;;5047127;28;19940;-79
2022/10/16 03:24:36;;;;;;;;;;;16.20;99.90;;;;;;5041699;28;19929;-79
2022/10/16 03:27:03;;;;;;;;;;;16.20;99.90;;;;;;5039897;28;19929;-80
2022/10/16 03:29:31;;;;;;;;;;;16.20;99.90;;;;;;5046214;28;19937;-79
2022/10/16 03:31:58;;;;;;;;;;;16.10;99.90;;;;;;5041611;28;20524;-79
2022/10/16 03:34:25;;;;;;;;;;;16.20;99.90;;;;;;5046731;28;19929;-79
2022/10/16 03:36:52;;;;;;;;;;;16.20;99.90;;;;;;5046459;28;19936;-78
2022/10/16 03:39:19;;;;;;;;;;;16.20;99.90;;;;;;5045370;28;19932;-79
2022/10/16 03:41:46;;;;;;;;;;;16.10;99.90;;;;;;5046621;28;19940;-79
2022/10/16 03:44:13;;;;;;;;;;;16.20;99.90;;;;;;5045588;28;19968;-79
2022/10/16 03:46:41;;;;;;;;;;;16.10;99.90;;;;;;5043583;28;19928;-78
2022/10/16 03:49:08;;;;;;;;;;;16.10;99.90;;;;;;5041634;28;19929;-78
2022/10/16 03:51:35;;;;;;;;;;;16.10;99.90;;;;;;5043630;28;19929;-79
2022/10/16 03:54:01;;;;;;;;;;;16.10;99.90;;;;;;5046730;28;19935;-79
2022/10/16 03:56:28;;;;;;;;;;;16.10;99.90;;;;;;5043763;28;19929;-79
2022/10/16 03:58:54;;;;;;;;;;;16.10;99.90;;;;;;5047325;28;19936;-79
2022/10/16 04:01:21;;;;;;;;;;;16.10;99.90;;;;;;5043779;28;19929;-79
2022/10/16 04:03:49;;;;;;;;;;;16.10;99.90;;;;;;5040083;28;19940;-79
2022/10/16 04:06:15;;;;;;;;;;;16.10;99.90;;;;;;5042683;28;20098;-79
2022/10/16 04:08:43;;;;;;;;;;;16.10;99.90;;;;;;5045516;28;20491;-79
2022/10/16 04:11:12;;;;;;;;;;;16.10;99.90;;;;;;5045462;28;19935;-78
2022/10/16 04:13:38;;;;;;;;;;;16.10;99.90;;;;;;5043444;28;20023;-78
2022/10/16 04:16:05;;;;;;;;;;;16.10;99.90;;;;;;5039833;28;20431;-79
2022/10/16 04:18:32;;;;;;;;;;;16.10;99.90;;;;;;5040742;28;20304;-79
2022/10/16 04:21:04;;;;;;;;;;;16.10;99.90;;;;;;5042721;28;19929;-79
2022/10/16 04:23:30;;;;;;;;;;;16.10;99.90;;;;;;5046007;28;19929;-79
2022/10/16 04:25:57;;;;;;;;;;;16.00;99.90;;;;;;5038251;28;19932;-78
2022/10/16 04:28:26;;;;;;;;;;;16.00;99.90;;;;;;5045398;28;20399;-79
2022/10/16 04:30:53;;;;;;;;;;;16.10;99.90;;;;;;5045040;28;19928;-79
2022/10/16 04:33:20;;;;;;;;;;;16.00;99.90;;;;;;5042467;28;19929;-79
2022/10/16 04:35:48;;;;;;;;;;;16.00;99.90;;;;;;5047866;28;19929;-79
2022/10/16 04:38:16;;;;;;;;;;;16.00;99.90;;;;;;5039681;28;19933;-79
2022/10/16 04:40:43;;;;;;;;;;;16.10;99.90;;;;;;5041890;28;19935;-79
2022/10/16 04:43:10;;;;;;;;;;;16.00;99.90;;;;;;5047103;28;19932;-79
2022/10/16 04:45:37;;;;;;;;;;;16.10;99.90;;;;;;5044048;28;19929;-78
2022/10/16 04:48:03;;;;;;;;;;;16.00;99.90;;;;;;5043517;28;19929;-79
2022/10/16 04:50:30;;;;;;;;;;;16.00;99.90;;;;;;5037195;28;19936;-76
2022/10/16 04:52:57;;;;;;;;;;;16.00;99.90;;;;;;5043612;28;20302;-79
2022/10/16 04:55:25;;;;;;;;;;;16.00;99.90;;;;;;5043974;28;19929;-79
2022/10/16 04:57:51;;;;;;;;;;;16.00;99.90;;;;;;5043788;28;19933;-79
2022/10/16 05:00:18;;;;;;;;;;;16.00;99.90;;;;;;5043617;28;19948;-79
2022/10/16 05:02:45;;;;;;;;;;;16.00;99.90;;;;;;5040689;28;19928;-79
2022/10/16 05:05:11;;;;;;;;;;;16.00;99.90;;;;;;5046248;28;19928;-79
2022/10/16 05:07:38;;;;;;;;;;;16.00;99.90;;;;;;5044654;28;19936;-79
2022/10/16 05:10:05;;;;;;;;;;;16.00;99.90;;;;;;5045065;28;19929;-79
2022/10/16 05:12:36;;;;;;;;;;;16.00;99.90;;;;;;5045759;28;19928;-78
2022/10/16 05:15:03;;;;;;;;;;;16.00;99.90;;;;;;5046436;28;20376;-79
2022/10/16 05:17:33;;;;;;;;;;;15.90;99.90;;;;;;5040890;28;20078;-79
2022/10/16 05:20:00;;;;;;;;;;;16.00;99.90;;;;;;5044148;28;19940;-78
2022/10/16 05:22:27;;;;;;;;;;;16.00;99.90;;;;;;5043570;28;19932;-79
2022/10/16 05:24:53;;;;;;;;;;;16.00;99.90;;;;;;5046136;28;19929;-78
2022/10/16 05:27:20;;;;;;;;;;;16.00;99.90;;;;;;5041930;28;19940;-78
2022/10/16 05:29:48;;;;;;;;;;;15.90;99.90;;;;;;5044354;28;19929;-78
2022/10/16 05:32:15;;;;;;;;;;;15.90;99.90;;;;;;5039855;28;21923;-79
2022/10/16 05:34:41;;;;;;;;;;;15.90;99.90;;;;;;5043703;28;20015;-77
2022/10/16 05:37:08;;;;;;;;;;;15.90;99.90;;;;;;5041539;28;20321;-78
2022/10/16 05:39:36;;;;;;;;;;;15.90;99.90;;;;;;5043843;28;19929;-78
2022/10/16 05:42:03;;;;;;;;;;;15.90;99.90;;;;;;5039648;28;19929;-78
2022/10/16 05:44:29;;;;;;;;;;;15.90;99.90;;;;;;5043321;28;19944;-78
2022/10/16 05:46:57;;;;;;;;;;;15.90;99.90;;;;;;5042988;28;19929;-78
2022/10/16 05:49:24;;;;;;;;;;;15.90;99.90;;;;;;5041095;28;19940;-78
2022/10/16 05:51:51;;;;;;;;;;;15.90;99.90;;;;;;5042781;28;19936;-78
2022/10/16 05:54:17;;;;;;;;;;;15.90;99.90;;;;;;5041613;28;19929;-78
2022/10/16 05:56:44;;;;;;;;;;;15.90;99.90;;;;;;5040133;28;19928;-77
2022/10/16 05:59:10;;;;;;;;;;;15.90;99.90;;;;;;5041444;28;19933;-78
2022/10/16 06:01:37;;;;;;;;;;;15.90;99.90;;;;;;5040556;28;19936;-78
2022/10/16 06:04:05;;;;;;;;;;;15.90;99.90;;;;;;5038717;28;19932;-78
2022/10/16 06:06:31;;;;;;;;;;;15.90;99.90;;;;;;5039773;28;19937;-78
2022/10/16 06:08:59;;;;;;;;;;;15.80;99.90;;;;;;5041675;28;19936;-78
2022/10/16 06:11:27;;;;;;;;;;;15.90;99.90;;;;;;5042684;28;19990;-78
2022/10/16 06:13:54;;;;;;;;;;;15.90;99.90;;;;;;5042968;28;19955;-78
2022/10/16 06:16:20;;;;;;;;;;;15.90;99.90;;;;;;5041160;28;20297;-78
2022/10/16 06:18:47;;;;;;;;;;;15.90;99.90;;;;;;5041372;28;19936;-79
2022/10/16 06:21:17;;;;;;;;;;;15.80;99.90;;;;;;5043280;28;19932;-78
2022/10/16 06:23:45;;;;;;;;;;;15.90;99.90;;;;;;5040884;28;19939;-78
2022/10/16 06:26:13;;;;;;;;;;;15.80;99.90;;;;;;5038812;28;20494;-78
2022/10/16 06:28:40;;;;;;;;;;;15.90;99.90;;;;;;5041299;28;19929;-78
2022/10/16 06:31:07;;;;;;;;;;;15.90;99.90;;;;;;5042379;28;20419;-78
2022/10/16 06:33:34;;;;;;;;;;;15.90;99.90;;;;;;5040742;28;19925;-78
2022/10/16 06:36:01;;;;;;;;;;;15.80;99.90;;;;;;5041913;28;19928;-78
2022/10/16 06:38:29;;;;;;;;;;;15.80;99.90;;;;;;5040170;28;20588;-78
2022/10/16 06:40:55;;;;;;;;;;;15.80;99.90;;;;;;5039582;28;19929;-78
2022/10/16 06:43:22;;;;;;;;;;;15.80;99.90;;;;;;5038814;28;19928;-77
2022/10/16 06:45:51;;;;;;;;;;;15.80;99.90;;;;;;5041001;28;19936;-77
2022/10/16 06:48:17;;;;;;;;;;;15.80;99.90;;;;;;5041268;28;20590;-78
2022/10/16 06:50:44;;;;;;;;;;;15.80;99.90;;;;;;5046132;28;19929;-78
2022/10/16 06:53:10;;;;;;;;;;;15.80;99.90;;;;;;5045470;28;19928;-78
2022/10/16 06:55:38;;;;;;;;;;;15.80;99.90;;;;;;5045179;28;19928;-78
2022/10/16 06:58:05;;;;;;;;;;;15.80;99.90;;;;;;5041993;28;19964;-78
2022/10/16 07:00:31;;;;;;;;;;;15.70;99.90;;;;;;5042144;28;19928;-78
2022/10/16 07:02:58;;;;;;;;;;;15.80;99.90;;;;;;5042149;28;19940;-79
2022/10/16 07:05:25;;;;;;;;;;;15.80;99.90;;;;;;5041751;28;19940;-78
2022/10/16 07:07:51;;;;;;;;;;;15.80;99.90;;;;;;5044536;28;20380;-79
2022/10/16 07:10:18;;;;;;;;;;;15.80;99.90;;;;;;5043386;28;20396;-79
2022/10/16 07:12:46;;;;;;;;;;;15.80;99.90;;;;;;5043103;28;19928;-79
2022/10/16 07:15:12;;;;;;;;;;;15.80;99.90;;;;;;5042019;28;19929;-78
2022/10/16 07:17:39;;;;;;;;;;;15.80;99.90;;;;;;5045611;28;20448;-78
2022/10/16 07:20:06;;;;;;;;;;;15.80;99.90;;;;;;5045392;28;19963;-78
2022/10/16 07:22:32;;;;;;;;;;;15.80;99.90;;;;;;5042914;28;19929;-78
2022/10/16 07:24:59;;;;;;;;;;;15.80;99.90;;;;;;5039898;28;19940;-78
2022/10/16 07:27:26;;;;;;;;;;;15.80;99.90;;;;;;5039295;28;19936;-79
2022/10/16 07:29:54;;;;;;;;;;;15.90;99.90;;;;;;5046084;28;19933;-79
2022/10/16 07:32:20;;;;;;;;;;;15.80;99.90;;;;;;5042259;28;19929;-78
2022/10/16 07:34:47;;;;;;;;;;;15.80;99.90;;;;;;5037300;28;19928;-79
2022/10/16 07:37:14;;;;;;;;;;;15.80;99.90;;;;;;5043631;28;19928;-78
2022/10/16 07:39:40;;;;;;;;;;;15.80;99.90;;;;;;5046775;28;19939;-78
2022/10/16 07:42:07;;;;;;;;;;;15.90;99.90;;;;;;5040106;28;19929;-78
2022/10/16 07:44:34;;;;;;;;;;;15.80;99.90;;;;;;5045965;28;19928;-78
2022/10/16 07:47:02;;;;;;;;;;;15.90;99.90;;;;;;5045166;28;19929;-79
2022/10/16 07:49:29;;;;;;;;;;;15.80;99.90;;;;;;5044445;28;20000;-79
2022/10/16 07:51:55;;;;;;;;;;;15.80;99.90;;;;;;5039932;28;19928;-79
2022/10/16 07:54:22;;;;;;;;;;;15.90;99.90;;;;;;5043574;28;19929;-78
2022/10/16 07:56:48;;;;;;;;;;;15.90;99.90;;;;;;5045345;28;19935;-78
2022/10/16 07:59:15;;;;;;;;;;;15.90;99.90;;;;;;5042886;28;19936;-78
2022/10/16 08:01:42;;;;;;;;;;;15.90;99.90;;;;;;5046307;28;19929;-78
2022/10/16 08:04:11;;;;;;;;;;;15.90;99.90;;;;;;5039523;28;20030;-78
2022/10/16 08:06:38;;;;;;;;;;;15.90;99.90;;;;;;5042144;28;19929;-78
2022/10/16 08:09:05;;;;;;;;;;;15.90;99.90;;;;;;5043686;28;20297;-78
2022/10/16 08:11:32;;;;;;;;;;;15.90;99.90;;;;;;5038517;28;19944;-77
2022/10/16 08:13:58;;;;;;;;;;;15.90;99.90;;;;;;5042498;28;19933;-77
2022/10/16 08:16:25;;;;;;;;;;;15.90;99.90;;;;;;5038654;28;20282;-77
2022/10/16 08:18:51;;;;;;;;;;;15.90;99.90;;;;;;5041224;28;19925;-78
2022/10/16 08:21:20;;;;;;;;;;;15.90;99.90;;;;;;5039958;28;20451;-73
2022/10/16 08:23:47;;;;;;;;;;;15.90;99.90;;;;;;5035839;28;19929;-73
2022/10/16 08:26:13;;;;;;;;;;;16.00;99.90;;;;;;5042484;28;19929;-73
2022/10/16 08:28:40;;;;;;;;;;;16.00;99.90;;;;;;5043937;28;19933;-74
2022/10/16 08:31:07;;;;;;;;;;;15.90;99.90;;;;;;5039791;28;19929;-73
2022/10/16 08:33:35;;;;;;;;;;;16.00;99.90;;;;;;5040380;28;19932;-73
2022/10/16 08:36:02;;;;;;;;;;;16.00;99.90;;;;;;5031118;28;20381;-74
2022/10/16 08:38:30;;;;;;;;;;;16.00;99.90;;;;;;5042223;28;19928;-73
2022/10/16 08:41:01;;;;;;;;;;;16.00;99.90;;;;;;5038984;28;20475;-73
2022/10/16 08:43:44;;;;;;;;;;;16.00;99.90;;;;;;5045749;28;19936;-73
2022/10/16 08:46:23;;;;;;;;;;;16.00;99.90;;;;;;5041410;28;19943;-73
2022/10/16 08:48:51;;;;;;;;;;;16.00;99.90;;;;;;5042358;28;19952;-74
2022/10/16 08:51:20;;;;;;;;;;;16.10;99.90;;;;;;5038537;28;19929;-74
2022/10/16 08:53:50;;;;;;;;;;;16.00;99.90;;;;;;5036809;28;19937;-73
2022/10/16 08:56:18;;;;;;;;;;;16.10;99.90;;;;;;5037199;28;20419;-74
2022/10/16 08:58:45;;;;;;;;;;;16.10;99.90;;;;;;5041058;28;19936;-73
2022/10/16 09:01:13;;;;;;;;;;;16.10;99.90;;;;;;5037327;28;19938;-73
2022/10/16 09:03:49;;;;;;;;;;;16.10;99.90;;;;;;5041411;28;19936;-73
2022/10/16 09:06:26;;;;;;;;;;;16.10;99.90;;;;;;5041010;28;19972;-73
2022/10/16 09:09:02;;;;;;;;;;;16.10;99.90;;;;;;5034576;28;20344;-74
2022/10/16 09:11:35;;;;;;;;;;;16.20;99.90;;;;;;5042773;28;19936;-74
2022/10/16 09:14:07;;;;;;;;;;;16.20;99.90;;;;;;5042317;28;19955;-73
2022/10/16 09:16:35;;;;;;;;;;;16.20;99.90;;;;;;5044414;28;19936;-73
2022/10/16 09:19:05;;;;;;;;;;;16.20;99.90;;;;;;5039533;28;19928;-73
2022/10/16 09:21:33;;;;;;;;;;;16.20;99.90;;;;;;5044955;28;19928;-73
2022/10/16 09:24:09;;;;;;;;;;;16.20;99.90;;;;;;5036991;28;19932;-73
2022/10/16 09:26:35;;;;;;;;;;;16.20;99.90;;;;;;5031104;28;19944;-73
2022/10/16 09:29:03;;;;;;;;;;;16.20;99.90;;;;;;5035995;28;19929;-74
2022/10/16 09:31:30;;;;;;;;;;;16.30;99.90;;;;;;5036112;28;19940;-73
2022/10/16 09:34:04;;;;;;;;;;;16.30;99.90;;;;;;5041273;28;20671;-74
2022/10/16 09:36:33;;;;;;;;;;;16.30;99.90;;;;;;5036635;28;19954;-72
2022/10/16 09:39:05;;;;;;;;;;;16.30;99.90;;;;;;5038963;28;19933;-73
2022/10/16 09:41:35;;;;;;;;;;;16.30;99.90;;;;;;5040420;28;21192;-73
2022/10/16 09:44:02;;;;;;;;;;;16.30;99.90;;;;;;5036261;28;19929;-73
2022/10/16 09:46:30;;;;;;;;;;;16.30;99.90;;;;;;5033650;28;19929;-73
2022/10/16 09:48:57;;;;;;;;;;;16.40;99.90;;;;;;5039778;28;19936;-73
2022/10/16 09:51:25;;;;;;;;;;;16.40;99.90;;;;;;5036945;28;20458;-74
2022/10/16 09:53:55;;;;;;;;;;;16.40;99.90;;;;;;5036012;28;19929;-73
2022/10/16 09:56:24;;;;;;;;;;;16.50;99.90;;;;;;5041025;28;19929;-73
2022/10/16 09:58:52;;;;;;;;;;;16.50;99.90;;;;;;5042115;28;19940;-73
2022/10/16 10:01:19;;;;;;;;;;;16.50;99.90;;;;;;5039799;28;20019;-73
2022/10/16 10:03:47;;;;;;;;;;;16.60;99.90;;;;;;5042040;28;19936;-73
2022/10/16 10:06:18;;;;;;;;;;;16.60;99.90;;;;;;5039195;28;20282;-73
2022/10/16 10:08:55;;;;;;;;;;;16.70;99.80;;;;;;5034284;28;19936;-74
2022/10/16 10:11:36;;;;;;;;;;;16.70;99.70;;;;;;5040554;28;20400;-73
2022/10/16 10:14:10;;;;;;;;;;;16.80;99.70;;;;;;5039853;28;19940;-73
2022/10/16 10:16:36;;;;;;;;;;;16.80;99.60;;;;;;5037922;28;19937;-73
2022/10/16 10:19:03;;;;;;;;;;;16.90;99.50;;;;;;5041559;28;19929;-73
2022/10/16 10:21:29;;;;;;;;;;;16.90;99.40;;;;;;5038524;28;20147;-77
2022/10/16 10:23:57;;;;;;;;;;;17.00;99.30;;;;;;5048650;28;19929;-77
2022/10/16 10:26:25;;;;;;;;;;;17.00;99.30;;;;;;5048683;28;20479;-78
2022/10/16 10:28:56;;;;;;;;;;;17.00;99.10;;;;;;5050783;28;19933;-78
2022/10/16 10:31:27;;;;;;;;;;;17.10;99.10;;;;;;5043841;28;20030;-78
2022/10/16 10:33:58;;;;;;;;;;;17.10;99.00;;;;;;5042093;28;19929;-78
2022/10/16 10:36:30;;;;;;;;;;;17.30;99.00;;;;;;5048684;28;19940;-78
2022/10/16 10:38:58;;;;;;;;;;;17.30;98.80;;;;;;5046820;28;19928;-77
2022/10/16 10:41:40;;;;;;;;;;;17.30;98.60;;;;;;5047611;28;19928;-78
2022/10/16 10:44:12;;;;;;;;;;;17.50;98.50;;;;;;5043812;28;19939;-78
2022/10/16 10:46:42;;;;;;;;;;;17.60;98.30;;;;;;5048517;28;19933;-77
2022/10/16 10:49:30;;;;;;;;;;;17.70;98.10;;;;;;5046387;28;20506;-79
2022/10/16 10:52:02;;;;;;;;;;;17.80;98.00;;;;;;5045018;28;19936;-78
2022/10/16 10:54:32;;;;;;;;;;;17.90;97.70;;;;;;5046114;28;19928;-79
2022/10/16 10:57:02;;;;;;;;;;;17.90;97.50;;;;;;5044873;28;19936;-78
2022/10/16 10:59:36;;;;;;;;;;;18.00;97.30;;;;;;5047160;28;19929;-78
2022/10/16 11:02:07;;;;;;;;;;;18.10;97.20;;;;;;5045341;28;19940;-78
2022/10/16 11:04:54;;;;;;;;;;;18.20;97.40;;;;;;5044433;28;19929;-79
2022/10/16 11:07:22;;;;;;;;;;;18.30;96.90;;;;;;5038488;28;19933;-78
2022/10/16 11:09:50;;;;;;;;;;;18.40;96.70;;;;;;5046528;28;19929;-79
2022/10/16 11:12:18;;;;;;;;;;;18.40;96.50;;;;;;5044384;28;19936;-79
2022/10/16 11:14:49;;;;;;;;;;;18.50;96.40;;;;;;5042055;28;19936;-78
2022/10/16 11:17:20;;;;;;;;;;;18.60;95.60;;;;;;5042679;28;21877;-78
2022/10/16 11:19:49;;;;;;;;;;;18.60;95.70;;;;;;5046605;28;19964;-79
2022/10/16 11:22:19;;;;;;;;;;;18.70;95.90;;;;;;5045712;28;19929;-79
2022/10/16 11:24:48;;;;;;;;;;;18.70;95.90;;;;;;5046958;28;19925;-79
2022/10/16 11:27:16;;;;;;;;;;;18.70;95.90;;;;;;5045789;28;19925;-79
2022/10/16 11:29:47;;;;;;;;;;;18.70;95.90;;;;;;5044609;28;20207;-78
2022/10/16 11:32:20;;;;;;;;;;;18.70;95.80;;;;;;5046039;28;19929;-78
2022/10/16 11:34:50;;;;;;;;;;;18.70;95.80;;;;;;5046777;28;19929;-78
2022/10/16 11:37:20;;;;;;;;;;;18.70;96.00;;;;;;5039016;28;19932;-79
2022/10/16 11:39:47;;;;;;;;;;;18.60;96.00;;;;;;5039107;28;19936;-79
2022/10/16 11:42:17;;;;;;;;;;;18.70;96.00;;;;;;5044482;28;20285;-79
2022/10/16 11:44:51;;;;;;;;;;;18.70;96.10;;;;;;5043635;28;19929;-78
2022/10/16 11:47:28;;;;;;;;;;;18.70;96.20;;;;;;5035330;28;19936;-77
2022/10/16 11:49:59;;;;;;;;;;;18.70;96.20;;;;;;5044436;28;20012;-77
2022/10/16 11:52:29;;;;;;;;;;;18.70;96.20;;;;;;5040119;28;19940;-77
2022/10/16 11:54:57;;;;;;;;;;;18.70;96.10;;;;;;5043421;28;19940;-78
2022/10/16 11:57:24;;;;;;;;;;;18.70;96.20;;;;;;5043821;28;19960;-80
2022/10/16 11:59:53;;;;;;;;;;;18.70;96.30;;;;;;5041950;28;19929;-80
2022/10/16 12:02:35;;;;;;;;;;;18.80;96.20;;;;;;5037502;28;19937;-81
2022/10/16 12:05:07;;;;;;;;;;;18.80;96.30;;;;;;5043153;28;19929;-78
2022/10/16 12:07:36;;;;;;;;;;;18.80;96.20;;;;;;5045383;28;19939;-79
2022/10/16 12:10:10;;;;;;;;;;;18.80;96.30;;;;;;5042146;28;20036;-81
2022/10/16 12:12:38;;;;;;;;;;;18.80;96.30;;;;;;5043296;28;19935;-79
2022/10/16 12:15:19;;;;;;;;;;;18.80;96.30;;;;;;5038471;28;19952;-80
2022/10/16 12:17:46;;;;;;;;;;;18.90;96.30;;;;;;5037056;28;19936;-81
2022/10/16 12:20:32;;;;;;;;;;;18.90;96.20;;;;;;5039186;28;19947;-81
2022/10/16 12:23:01;;;;;;;;;;;18.90;96.20;;;;;;5040695;28;19998;-81
2022/10/16 12:25:29;;;;;;;;;;;19.00;96.40;;;;;;5037296;28;19937;-80
2022/10/16 12:28:00;;;;;;;;;;;19.00;96.30;;;;;;5039081;28;19936;-80
2022/10/16 12:30:29;;;;;;;;;;;19.00;96.10;;;;;;5040723;28;20815;-81
2022/10/16 12:32:57;;;;;;;;;;;19.10;96.10;;;;;;5039932;28;20730;-81
2022/10/16 12:35:24;;;;;;;;;;;19.10;96.00;;;;;;5039942;28;19943;-80
2022/10/16 12:37:51;;;;;;;;;;;19.10;96.00;;;;;;5041368;28;19935;-81
2022/10/16 12:40:27;;;;;;;;;;;19.10;96.00;;;;;;5044205;28;19935;-82
2022/10/16 12:42:53;;;;;;;;;;;19.10;95.90;;;;;;5041067;28;19928;-82
2022/10/16 12:45:27;;;;;;;;;;;19.20;95.90;;;;;;5039512;28;20723;-82
2022/10/16 12:47:55;;;;;;;;;;;19.20;95.80;;;;;;5040551;28;19940;-81
2022/10/16 12:50:30;;;;;;;;;;;19.30;95.80;;;;;;5042475;28;20049;-82
2022/10/16 12:52:57;;;;;;;;;;;19.30;95.70;;;;;;5042971;28;20711;-81
2022/10/16 12:55:24;;;;;;;;;;;19.40;95.50;;;;;;5032181;28;19945;-80
2022/10/16 12:58:08;;;;;;;;;;;19.50;95.40;;;;;;5040661;28;19940;-80
2022/10/16 13:00:41;;;;;;;;;;;19.50;95.20;;;;;;5041834;28;19928;-80
2022/10/16 13:03:28;;;;;;;;;;;19.60;94.40;;;;;;5039406;28;19928;-81
2022/10/16 13:06:00;;;;;;;;;;;19.60;94.50;;;;;;5041780;28;20043;-80
2022/10/16 13:08:41;;;;;;;;;;;19.70;94.70;;;;;;5042002;28;19932;-79
2022/10/16 13:11:13;;;;;;;;;;;19.70;94.70;;;;;;5040435;28;19939;-79
2022/10/16 13:13:47;;;;;;;;;;;19.70;94.70;;;;;;5038672;28;19933;-80
2022/10/16 13:16:20;;;;;;;;;;;19.70;94.70;;;;;;5039177;28;19937;-80
2022/10/16 13:18:51;;;;;;;;;;;19.70;94.80;;;;;;5040404;28;19929;-79
2022/10/16 13:21:22;;;;;;;;;;;19.70;94.90;;;;;;5035821;28;19929;-78
2022/10/16 13:23:54;;;;;;;;;;;19.70;94.90;;;;;;5039433;28;20590;-79
2022/10/16 13:26:25;;;;;;;;;;;19.70;95.20;;;;;;5038026;28;19928;-79
2022/10/16 13:28:52;;;;;;;;;;;19.60;94.90;;;;;;5038874;28;19929;-79
2022/10/16 13:31:22;;;;;;;;;;;19.60;95.00;;;;;;5040092;28;19979;-79
2022/10/16 13:33:52;;;;;;;;;;;19.70;95.10;;;;;;5040005;28;20320;-79
2022/10/16 13:36:20;;;;;;;;;;;19.60;95.10;;;;;;5042283;28;19929;-78
2022/10/16 13:38:47;;;;;;;;;;;19.60;95.20;;;;;;5043491;28;20012;-78
2022/10/16 13:41:15;;;;;;;;;;;19.60;95.20;;;;;;5041128;28;20003;-79
2022/10/16 13:43:43;;;;;;;;;;;19.60;95.20;;;;;;5038923;28;19929;-80
2022/10/16 13:46:13;;;;;;;;;;;19.60;95.30;;;;;;5041117;28;19928;-79
2022/10/16 13:48:41;;;;;;;;;;;19.60;95.30;;;;;;5039482;28;19928;-80
2022/10/16 13:51:13;;;;;;;;;;;19.60;95.40;;;;;;5041674;28;19936;-78
2022/10/16 13:53:40;;;;;;;;;;;19.60;95.40;;;;;;5039701;28;19951;-79
2022/10/16 13:56:09;;;;;;;;;;;19.60;95.40;;;;;;5040732;28;19929;-79
2022/10/16 13:58:35;;;;;;;;;;;19.60;95.40;;;;;;5040496;28;19929;-78
2022/10/16 14:01:05;;;;;;;;;;;19.60;95.50;;;;;;5037957;28;19968;-79
2022/10/16 14:03:33;;;;;;;;;;;19.60;95.50;;;;;;5037489;28;20010;-79
2022/10/16 14:06:01;;;;;;;;;;;19.60;95.50;;;;;;5038998;28;19940;-79
2022/10/16 14:08:29;;;;;;;;;;;19.60;95.50;;;;;;5037107;28;19928;-79
2022/10/16 14:10:57;;;;;;;;;;;19.60;95.50;;;;;;5037321;28;19932;-79
2022/10/16 14:13:27;;;;;;;;;;;19.60;95.50;;;;;;5036822;28;19939;-79
2022/10/16 14:15:54;;;;;;;;;;;19.60;95.60;;;;;;5031657;28;19929;-79
2022/10/16 14:18:23;;;;;;;;;;;19.60;95.60;;;;;;5036334;28;19936;-78
2022/10/16 14:20:50;;;;;;;;;;;19.60;95.60;;;;;;5044345;28;19933;-77
2022/10/16 14:23:23;;;;;;;;;;;19.60;95.60;;;;;;5037733;28;19939;-79
2022/10/16 14:25:49;;;;;;;;;;;19.60;95.60;;;;;;5038872;28;20361;-79